Архив погоды в Кизляре

Метеограмма Кизляр
Вторник, 14 Августа
Время местн. Темп Ветер Видим Явления Облачность нижн/средн/верх Атм. давл. Влжн Точка росы ВНГО R Сост. почвы Tg s
Напр Скр Прв ур.ст ур.м изм
12:00 +30.4° С,С-З 3 - 10 км - ясно 762 762 -0.5 30% +11° более 2.5 км - - - -
09:00 +25.4° З 2 - 10 км - ясно 762 762 +0.3 55% +15.7° более 2.5 км - - - -
06:00 +18.2° З 2 - 10 км - ясно 762 762 +0.7 83% +15.3° более 2.5 км - Влажная (без луж) - -
03:00 +19.2° З 3 - 10 км - ясно 761 761 +0.2 78% +15.3° более 2.5 км - - - -
00:00 +19.2° Ю-З 1 - 10 км - переменная облачность 761 761 -0.2 80% +15.6° более 2.5 км - - - -
Понедельник, 13 Августа
Время местн. Темп Ветер Видим Явления Облачность нижн/средн/верх Атм. давл. Влжн Точка росы ВНГО R Сост. почвы Tg s
Напр Скр Прв ур.ст ур.м изм
21:00 +22.1° Ю,Ю-З 2 - 10 км - облачно с прояснениями 762 761 +1.1 68% +15.9° 1 км - - - -
18:00 +26.2° Ю-З 1 - 10 км - облачно с прояснениями 760 760 -0.4 52% +15.7° 1 км - - - -
15:00 +27.5° З,С-З 2 - 10 км - облачно с прояснениями 761 760 -0.5 47% +15.1° 1 км - - - -
12:00 +25.3° З,Ю-З 2 - 10 км - облачно с прояснениями 761 761 -0.5 58% +16.5° 1 км - - - -
09:00 +23.1° З 1 - 10 км - переменная облачность 762 761 +0.2 68% +16.8° 1 км - - - -
06:00 +16.8° З,С-З 1 - 4 км дымка переменная облачность 762 761 +0.5 96% +16.2° 1 км - Влажная (без луж) - -
03:00 +16.8° штиль 0 - 4 км дымка ясно 761 761 -0.6 94% +15.8° более 2.5 км - - - -
00:00 +19° В 1 - 10 км - преимущественно облачно 762 761 -0.5 79% +15.2° 1 км - - - -
Воскресенье, 12 Августа
Время местн. Темп Ветер Видим Явления Облачность нижн/средн/верх Атм. давл. Влжн Точка росы ВНГО R Сост. почвы Tg s
Напр Скр Прв ур.ст ур.м изм
21:00 +19.7° С-В 1 - 10 км - преимущественно облачно 762 762 +1.1 78% +15.7° 1 км - - - -
18:00 +22.1° В 4 - 10 км небо без изменений {ливневые осадки} облачно с прояснениями 761 761 -1.1 70% +16.3° 1 км - - - -
15:00 +21.2° С-В 2 - 10 км небо без изменений {гроза, ливневые осадки} облачно 762 762 +0.4 75% +16.6° 1 км - - - -
12:00 +20.5° В 6 - 10 км слабая или умеренная гроза с осадками преимущественно облачно 762 761 -0.8 86% +18° 1 км - - - -
09:00 +23.7° В,С-В 6 - 10 км - облачно с прояснениями 762 762 0 61% +15.7° 1 км - - - -
06:00 +19.1° В 5 - 10 км - преимущественно облачно 762 762 -1.5 76% +14.8° 1 км - Влажная (без луж) - -
03:00 +18° С-В 2 - 10 км - облачно с прояснениями 764 763 -1.1 81% +14.7° 1 км - - - -
00:00 +18.6° В 1 - 10 км - облачно 765 765 -1.1 80% +15.1° 1 км - - - -
Суббота, 11 Августа
Время местн. Темп Ветер Видим Явления Облачность нижн/средн/верх Атм. давл. Влжн Точка росы ВНГО R Сост. почвы Tg s
Напр Скр Прв ур.ст ур.м изм
21:00 +19.5° штиль 0 - 10 км - облачно с прояснениями 766 766 0 75% +15° 1 км - - - -
18:00 +22.4° Ю 1 - 10 км - облачно с прояснениями 766 766 -0.5 57% +13.5° 1 км - - - -
15:00 +23.9° Ю 2 - 10 км - облачно с прояснениями 767 766 -0.9 51% +13.3° 1 км - - - -
12:00 +24.4° Ю-В 3 - 10 км - облачно с прояснениями 768 767 -0.8 47% +12.2° 1 км - - - -
09:00 +19.2° Ю,Ю-З 2 - 10 км - облачно с прояснениями 768 768 +0.3 80% +15.6° 1 км - - - -